createdAt,value
2018-11-25T00:01:45.435Z,11.40
2018-11-25T00:04:19.332Z,10.00
2018-11-25T00:06:53.413Z,11.83
2018-11-25T00:09:27.449Z,10.07
2018-11-25T00:12:01.625Z,11.30
2018-11-25T00:14:35.932Z,12.67
2018-11-25T00:17:09.866Z,14.73
2018-11-25T00:19:43.719Z,12.07
2018-11-25T00:22:17.822Z,12.60
2018-11-25T00:24:51.808Z,14.43
2018-11-25T00:27:25.693Z,14.63
2018-11-25T00:29:59.689Z,10.70
2018-11-25T00:32:33.629Z,10.60
2018-11-25T00:35:09.332Z,11.97
2018-11-25T00:37:48.123Z,10.83
2018-11-25T00:40:17.568Z,11.50
2018-11-25T00:42:51.529Z,9.63
2018-11-25T00:45:25.578Z,9.70
2018-11-25T00:47:59.895Z,12.13
2018-11-25T00:50:33.998Z,14.30
2018-11-25T00:53:08.124Z,15.87
2018-11-25T00:55:42.089Z,9.87
2018-11-25T00:58:16.168Z,8.90
2018-11-25T01:00:49.928Z,8.17
2018-11-25T01:03:23.878Z,9.90
2018-11-25T01:05:58.006Z,9.27
2018-11-25T01:08:31.745Z,8.63
2018-11-25T01:11:06.049Z,9.50
2018-11-25T01:13:39.903Z,8.90
2018-11-25T01:16:13.893Z,8.73
2018-11-25T01:18:47.735Z,8.63
2018-11-25T01:21:21.654Z,8.20
2018-11-25T01:23:55.603Z,8.73
2018-11-25T01:26:29.483Z,8.77
2018-11-25T01:29:03.591Z,8.37
2018-11-25T01:31:37.639Z,8.73
2018-11-25T01:34:11.724Z,9.47
2018-11-25T01:36:45.860Z,8.97
2018-11-25T01:39:19.898Z,11.53
2018-11-25T01:41:54.377Z,9.60
2018-11-25T01:44:28.634Z,9.93
2018-11-25T01:47:02.673Z,9.30
2018-11-25T01:49:36.625Z,10.43
2018-11-25T01:52:10.569Z,9.27
2018-11-25T01:54:44.539Z,9.67
2018-11-25T01:57:18.746Z,10.23
2018-11-25T01:59:52.884Z,10.40
2018-11-25T02:02:26.742Z,10.60
2018-11-25T02:05:00.878Z,9.87
2018-11-25T02:07:35.168Z,11.07
2018-11-25T02:10:12.703Z,10.03
2018-11-25T02:12:46.782Z,10.03
2018-11-25T02:15:21.008Z,11.13
2018-11-25T02:17:55.132Z,10.80
2018-11-25T02:20:28.964Z,10.43
2018-11-25T02:23:03.264Z,10.97
2018-11-25T02:25:37.548Z,12.03
2018-11-25T02:28:11.909Z,12.40
2018-11-25T02:30:45.754Z,11.87
2018-11-25T02:33:19.980Z,12.43
2018-11-25T02:36:00.578Z,12.20
2018-11-25T02:38:34.577Z,12.97
2018-11-25T02:41:08.541Z,11.33
2018-11-25T02:43:42.621Z,11.57
2018-11-25T02:46:16.579Z,12.00
2018-11-25T02:48:51.694Z,11.60
2018-11-25T02:51:24.718Z,11.50
2018-11-25T02:53:58.718Z,11.97
2018-11-25T02:56:32.684Z,12.07
2018-11-25T02:59:06.829Z,12.50
2018-11-25T03:01:40.986Z,12.63
2018-11-25T03:04:15.419Z,13.97
2018-11-25T03:06:49.514Z,13.60
2018-11-25T03:09:23.484Z,14.83
2018-11-25T03:11:57.845Z,13.97
2018-11-25T03:14:31.799Z,12.63
2018-11-25T03:17:05.753Z,14.87
2018-11-25T03:19:39.542Z,15.63
2018-11-25T03:22:13.850Z,14.40
2018-11-25T03:24:47.875Z,14.60
2018-11-25T03:27:21.780Z,14.13
2018-11-25T03:29:55.775Z,16.73
2018-11-25T03:32:29.695Z,14.10
2018-11-25T03:35:03.574Z,15.10
2018-11-25T03:37:37.730Z,13.87
2018-11-25T03:40:13.536Z,13.43
2018-11-25T03:42:47.384Z,13.80
2018-11-25T03:45:21.684Z,14.33
2018-11-25T03:47:55.664Z,14.03
2018-11-25T03:50:29.411Z,13.57
2018-11-25T03:53:03.359Z,16.17
2018-11-25T03:55:37.384Z,16.50
2018-11-25T03:58:11.293Z,16.37
2018-11-25T04:00:45.238Z,16.83
2018-11-25T04:03:19.605Z,16.27
2018-11-25T04:05:53.528Z,15.33
2018-11-25T04:08:27.684Z,16.20
2018-11-25T04:11:01.726Z,17.30
2018-11-25T04:13:35.761Z,16.10
2018-11-25T04:16:09.993Z,16.40
2018-11-25T04:18:43.990Z,18.80
2018-11-25T04:21:18.416Z,19.00
2018-11-25T04:23:52.275Z,21.10
2018-11-25T04:26:26.199Z,18.07
2018-11-25T04:29:00.194Z,17.13
2018-11-25T04:31:34.291Z,19.07
2018-11-25T04:34:08.440Z,18.03
2018-11-25T04:36:42.174Z,18.33
2018-11-25T04:39:16.333Z,18.50
2018-11-25T04:41:50.307Z,19.53
2018-11-25T04:44:24.137Z,22.20
2018-11-25T04:46:58.009Z,24.80
2018-11-25T04:49:31.958Z,23.40
2018-11-25T04:52:05.791Z,22.90
2018-11-25T04:54:39.778Z,23.63
2018-11-25T04:57:13.811Z,23.73
2018-11-25T04:59:47.914Z,22.43
2018-11-25T05:02:22.245Z,25.27
2018-11-25T05:04:55.938Z,23.87
2018-11-25T05:07:29.756Z,29.30
2018-11-25T05:10:04.904Z,27.37
2018-11-25T05:12:39.017Z,26.50
2018-11-25T05:15:17.237Z,27.77
2018-11-25T05:17:51.109Z,25.63
2018-11-25T05:20:32.315Z,26.60
2018-11-25T05:23:06.274Z,26.43
2018-11-25T05:25:40.498Z,26.50
2018-11-25T05:28:14.257Z,27.73
2018-11-25T05:30:48.110Z,25.53
2018-11-25T05:33:22.107Z,26.13
2018-11-25T05:35:55.888Z,28.60
2018-11-25T05:38:29.989Z,29.43
2018-11-25T05:41:04.170Z,29.03
2018-11-25T05:43:38.149Z,29.27
2018-11-25T05:46:11.839Z,32.67
2018-11-25T05:48:45.762Z,34.83
2018-11-25T05:51:19.704Z,35.93
2018-11-25T05:53:53.591Z,38.87
2018-11-25T05:56:27.705Z,40.13
2018-11-25T05:59:01.706Z,36.30
2018-11-25T06:01:35.740Z,38.20
2018-11-25T06:04:09.635Z,38.23
2018-11-25T06:06:43.590Z,39.40
2018-11-25T06:09:17.605Z,39.80
2018-11-25T06:11:51.623Z,39.60
2018-11-25T06:14:25.705Z,38.53
2018-11-25T06:16:59.728Z,40.10
2018-11-25T06:19:33.789Z,37.53
2018-11-25T06:22:07.559Z,37.97
2018-11-25T06:24:41.614Z,35.13
2018-11-25T06:27:15.561Z,34.37
2018-11-25T06:29:49.460Z,36.30
2018-11-25T06:32:23.256Z,33.60
2018-11-25T06:34:57.189Z,31.47
2018-11-25T06:37:31.322Z,30.87
2018-11-25T06:40:10.010Z,33.77
2018-11-25T06:42:44.003Z,33.97
2018-11-25T06:45:22.331Z,30.67
2018-11-25T06:47:57.278Z,35.07
2018-11-25T06:50:31.942Z,35.03
2018-11-25T06:53:05.914Z,36.03
2018-11-25T06:55:39.842Z,33.90
2018-11-25T06:58:13.751Z,30.43
2018-11-25T07:00:47.904Z,32.57
2018-11-25T07:03:21.773Z,32.27
2018-11-25T07:05:55.643Z,27.53
2018-11-25T07:08:29.574Z,31.50
2018-11-25T07:11:03.374Z,28.57
2018-11-25T07:13:37.384Z,27.40
2018-11-25T07:16:11.400Z,24.30
2018-11-25T07:18:45.289Z,22.60
2018-11-25T07:21:19.304Z,22.90
2018-11-25T07:23:53.394Z,22.30
2018-11-25T07:26:27.644Z,26.07
2018-11-25T07:29:01.474Z,20.60
2018-11-25T07:31:35.942Z,19.87
2018-11-25T07:34:09.832Z,19.10
2018-11-25T07:36:43.732Z,17.70
2018-11-25T07:39:17.726Z,17.17
2018-11-25T07:41:51.584Z,15.73
2018-11-25T07:44:25.586Z,19.50
2018-11-25T07:46:59.714Z,17.20
2018-11-25T07:49:34.109Z,18.90
2018-11-25T07:52:08.651Z,16.70
2018-11-25T07:54:42.685Z,16.03
2018-11-25T07:57:16.730Z,18.20
2018-11-25T07:59:50.489Z,18.17
2018-11-25T08:02:24.323Z,16.37
2018-11-25T08:04:58.372Z,15.40
2018-11-25T08:07:32.741Z,14.40
2018-11-25T08:10:08.785Z,14.57
2018-11-25T08:12:43.135Z,13.60
2018-11-25T08:15:18.209Z,14.23
2018-11-25T08:17:52.038Z,15.07
2018-11-25T08:20:26.258Z,13.63
2018-11-25T08:23:00.188Z,14.07
2018-11-25T08:25:33.987Z,14.23
2018-11-25T08:28:08.195Z,15.83
2018-11-25T08:30:42.429Z,13.90
2018-11-25T08:33:16.219Z,13.00
2018-11-25T08:35:54.111Z,14.90
2018-11-25T08:38:28.040Z,14.80
2018-11-25T08:41:02.165Z,13.57
2018-11-25T08:43:36.025Z,15.00
2018-11-25T08:46:10.093Z,17.13
2018-11-25T08:48:44.765Z,14.20
2018-11-25T08:51:18.726Z,14.80
2018-11-25T08:53:52.814Z,15.20
2018-11-25T08:56:26.805Z,14.80
2018-11-25T08:59:00.751Z,16.30
2018-11-25T09:01:34.573Z,15.27
2018-11-25T09:04:08.384Z,15.57
2018-11-25T09:06:42.928Z,15.17
2018-11-25T09:09:16.887Z,15.60
2018-11-25T09:11:50.869Z,14.53
2018-11-25T09:14:24.693Z,14.83
2018-11-25T09:16:58.728Z,14.00
2018-11-25T09:19:32.520Z,16.37
2018-11-25T09:22:06.536Z,15.47
2018-11-25T09:24:40.533Z,15.33
2018-11-25T09:27:14.977Z,17.63
2018-11-25T09:29:48.858Z,16.40
2018-11-25T09:32:23.307Z,19.93
2018-11-25T09:34:57.582Z,19.40
2018-11-25T09:37:31.539Z,20.43
2018-11-25T09:40:22.662Z,15.80
2018-11-25T09:42:56.681Z,16.20
2018-11-25T09:45:30.659Z,17.33
2018-11-25T09:48:04.723Z,18.27
2018-11-25T09:50:38.671Z,18.90
2018-11-25T09:53:12.885Z,16.77
2018-11-25T09:55:47.013Z,14.70
2018-11-25T09:58:25.523Z,15.20
2018-11-25T10:00:55.775Z,15.73
2018-11-25T10:03:29.789Z,15.43
2018-11-25T10:06:03.793Z,16.33
2018-11-25T10:08:37.745Z,16.17
2018-11-25T10:11:11.829Z,16.13
2018-11-25T10:13:46.256Z,15.87
2018-11-25T10:16:20.239Z,14.47
2018-11-25T10:18:54.312Z,14.63
2018-11-25T10:21:28.180Z,14.00
2018-11-25T10:24:02.355Z,14.03
2018-11-25T10:26:36.309Z,16.83
2018-11-25T10:29:10.287Z,14.60
2018-11-25T10:31:44.379Z,13.50
2018-11-25T10:34:18.289Z,14.20
2018-11-25T10:36:52.168Z,14.80
2018-11-25T10:39:26.320Z,14.57
2018-11-25T10:42:00.408Z,14.73
2018-11-25T10:44:34.524Z,14.77
2018-11-25T10:47:08.644Z,16.13
2018-11-25T10:49:42.660Z,14.00
2018-11-25T10:52:16.668Z,15.17
2018-11-25T10:54:50.903Z,15.13
2018-11-25T10:57:25.078Z,15.67
2018-11-25T10:59:59.088Z,15.73
2018-11-25T11:02:38.763Z,18.27
2018-11-25T11:06:17.269Z,16.00
2018-11-25T11:08:51.790Z,14.87
2018-11-25T11:11:25.902Z,17.53
2018-11-25T11:14:00.470Z,16.80
2018-11-25T11:16:34.761Z,17.23
2018-11-25T11:19:08.818Z,18.57
2018-11-25T11:21:42.967Z,20.90
2018-11-25T11:24:16.779Z,19.80
2018-11-25T11:26:50.885Z,24.63
2018-11-25T11:29:25.109Z,18.93
2018-11-25T11:31:59.146Z,21.83
2018-11-25T11:34:33.298Z,20.27
2018-11-25T11:37:07.443Z,19.37
2018-11-25T11:39:41.458Z,17.57
2018-11-25T11:42:15.537Z,19.53
2018-11-25T11:44:49.462Z,17.60
2018-11-25T11:47:23.513Z,16.67
2018-11-25T11:49:57.629Z,17.33
2018-11-25T11:52:31.797Z,18.33
2018-11-25T11:55:07.625Z,19.67
2018-11-25T11:57:42.218Z,18.53
2018-11-25T12:00:24.594Z,18.33
2018-11-25T12:02:58.730Z,19.30
2018-11-25T12:05:32.909Z,21.93
2018-11-25T12:08:07.019Z,20.10
2018-11-25T12:10:41.192Z,19.53
2018-11-25T12:13:15.060Z,18.17
2018-11-25T12:15:49.198Z,21.17
2018-11-25T12:18:23.473Z,20.87
2018-11-25T12:20:58.027Z,18.80
2018-11-25T12:23:31.813Z,20.50
2018-11-25T12:26:06.167Z,20.33
2018-11-25T12:28:40.367Z,20.93
2018-11-25T12:31:14.327Z,22.07
2018-11-25T12:33:48.316Z,28.57
2018-11-25T12:36:22.593Z,27.90
2018-11-25T12:38:56.620Z,27.07
2018-11-25T12:41:31.043Z,29.70
2018-11-25T12:44:05.447Z,42.67
2018-11-25T12:46:39.502Z,27.50
2018-11-25T12:49:13.753Z,24.33
2018-11-25T12:51:47.768Z,23.87
2018-11-25T12:54:22.117Z,24.47
2018-11-25T12:56:56.188Z,25.00
2018-11-25T12:59:31.260Z,24.47
2018-11-25T13:02:05.758Z,25.70
2018-11-25T13:04:39.741Z,23.10
2018-11-25T13:07:13.960Z,24.17
2018-11-25T13:09:48.108Z,23.83
2018-11-25T13:12:22.264Z,23.00
2018-11-25T13:14:57.010Z,22.07
2018-11-25T13:17:31.195Z,21.80
2018-11-25T13:20:09.054Z,21.57
2018-11-25T13:22:43.090Z,20.73
2018-11-25T13:25:17.687Z,22.13
2018-11-25T13:27:51.824Z,22.17
2018-11-25T13:30:28.203Z,20.27
2018-11-25T13:33:03.292Z,22.47
2018-11-25T13:35:38.651Z,23.23
2018-11-25T13:38:13.225Z,20.30
2018-11-25T13:40:47.564Z,20.33
2018-11-25T13:43:21.802Z,19.77
2018-11-25T13:45:55.849Z,24.50
2018-11-25T13:48:30.026Z,22.40
2018-11-25T13:51:06.009Z,23.37
2018-11-25T13:53:40.032Z,26.70
2018-11-25T13:56:14.297Z,23.13
2018-11-25T13:58:48.239Z,24.33
2018-11-25T14:01:22.294Z,24.73
2018-11-25T14:03:56.668Z,21.37
2018-11-25T14:06:30.784Z,22.93
2018-11-25T14:09:10.179Z,21.67
2018-11-25T14:11:44.084Z,22.93
2018-11-25T14:14:18.229Z,24.33
2018-11-25T14:16:52.407Z,22.33
2018-11-25T14:19:26.797Z,23.53
2018-11-25T14:22:00.792Z,23.77
2018-11-25T14:24:34.764Z,22.83
2018-11-25T14:27:09.684Z,24.10
2018-11-25T14:29:43.690Z,21.93
2018-11-25T14:32:17.801Z,23.97
2018-11-25T14:34:52.208Z,24.10
2018-11-25T14:37:26.247Z,22.27
2018-11-25T14:40:00.488Z,22.37
2018-11-25T14:42:34.422Z,23.93
2018-11-25T14:45:12.123Z,23.60
2018-11-25T14:47:46.193Z,23.47
2018-11-25T14:50:20.624Z,21.87
2018-11-25T14:52:54.546Z,21.67
2018-11-25T14:55:28.697Z,23.43
2018-11-25T14:58:02.689Z,22.47
2018-11-25T15:00:36.812Z,24.10
2018-11-25T15:03:11.248Z,21.97
2018-11-25T15:05:46.710Z,21.90
2018-11-25T15:08:23.552Z,23.10
2018-11-25T15:10:57.677Z,21.67
2018-11-25T15:13:31.990Z,22.67
2018-11-25T15:16:08.508Z,22.73
2018-11-25T15:18:42.843Z,22.07
2018-11-25T15:21:17.109Z,22.00
2018-11-25T15:23:51.455Z,23.50
2018-11-25T15:26:25.393Z,23.07
2018-11-25T15:28:59.763Z,21.97
2018-11-25T15:31:33.787Z,24.47
2018-11-25T15:34:07.993Z,24.67
2018-11-25T15:36:41.829Z,23.93
2018-11-25T15:39:15.817Z,23.80
2018-11-25T15:41:49.829Z,25.07
2018-11-25T15:44:23.939Z,24.80
2018-11-25T15:46:58.775Z,28.03
2018-11-25T15:49:32.544Z,25.13
2018-11-25T15:52:06.699Z,26.17
2018-11-25T15:54:40.804Z,27.70
2018-11-25T15:57:15.470Z,26.67
2018-11-25T15:59:49.728Z,25.67
2018-11-25T16:02:23.831Z,26.03
2018-11-25T16:04:57.833Z,24.90
2018-11-25T16:07:32.068Z,25.27
2018-11-25T16:10:08.982Z,25.37
2018-11-25T16:12:44.558Z,26.50
2018-11-25T16:15:19.875Z,27.17
2018-11-25T16:17:53.889Z,30.47
2018-11-25T16:20:28.242Z,28.10
2018-11-25T16:23:05.259Z,28.20
2018-11-25T16:25:41.944Z,27.53
2018-11-25T16:28:41.640Z,27.63
2018-11-25T16:31:16.193Z,24.70
2018-11-25T16:33:50.325Z,27.17
2018-11-25T16:36:24.857Z,27.60
2018-11-25T16:38:59.047Z,27.13
2018-11-25T16:41:33.199Z,28.50
2018-11-25T16:44:07.114Z,27.00
2018-11-25T16:46:41.341Z,28.33
2018-11-25T16:49:15.207Z,28.57
2018-11-25T16:51:49.094Z,27.27
2018-11-25T16:54:23.370Z,25.53
2018-11-25T16:56:57.207Z,25.93
2018-11-25T16:59:31.529Z,28.00
2018-11-25T17:02:05.687Z,26.93
2018-11-25T17:04:39.888Z,24.73
2018-11-25T17:07:13.924Z,28.57
2018-11-25T17:09:48.032Z,24.17
2018-11-25T17:12:22.485Z,26.83
2018-11-25T17:14:56.874Z,26.53
2018-11-25T17:17:30.903Z,26.20
2018-11-25T17:20:05.738Z,26.40
2018-11-25T17:22:39.904Z,27.57
2018-11-25T17:25:14.448Z,28.47
2018-11-25T17:27:48.472Z,31.07
2018-11-25T17:30:22.999Z,30.57
2018-11-25T17:32:57.490Z,32.13
2018-11-25T17:35:32.086Z,31.97
2018-11-25T17:38:06.265Z,29.40
2018-11-25T17:40:40.228Z,31.03
2018-11-25T17:43:17.024Z,30.47
2018-11-25T17:45:51.048Z,29.07
2018-11-25T17:48:25.225Z,29.23
2018-11-25T17:50:59.259Z,28.40
2018-11-25T17:53:33.380Z,28.30
2018-11-25T17:56:07.692Z,28.50
2018-11-25T17:58:41.929Z,29.57
2018-11-25T18:01:16.147Z,29.27
2018-11-25T18:03:50.289Z,29.40
2018-11-25T18:06:24.787Z,29.43
2018-11-25T18:08:58.675Z,26.57
2018-11-25T18:11:32.900Z,26.97
2018-11-25T18:14:07.828Z,30.07
2018-11-25T18:16:42.033Z,25.67
2018-11-25T18:19:20.354Z,27.43
2018-11-25T18:22:06.187Z,27.77
2018-11-25T18:24:40.278Z,26.33
2018-11-25T18:27:14.285Z,27.47
2018-11-25T18:29:48.472Z,27.97
2018-11-25T18:32:22.771Z,24.80
2018-11-25T18:34:57.256Z,26.50
2018-11-25T18:37:31.372Z,25.60
2018-11-25T18:40:08.298Z,27.20
2018-11-25T18:42:43.217Z,27.50
2018-11-25T18:45:19.110Z,27.17
2018-11-25T18:47:56.477Z,27.57
2018-11-25T18:50:30.843Z,27.30
2018-11-25T18:53:06.113Z,26.20
2018-11-25T18:55:39.049Z,26.03
2018-11-25T18:58:13.444Z,28.13
2018-11-25T19:00:58.587Z,29.40
2018-11-25T19:03:33.171Z,26.63
2018-11-25T19:06:07.657Z,27.53
2018-11-25T19:08:41.812Z,27.10
2018-11-25T19:11:16.044Z,27.87
2018-11-25T19:13:50.468Z,27.30
2018-11-25T19:16:24.939Z,28.60
2018-11-25T19:18:59.248Z,27.07
2018-11-25T19:21:33.512Z,31.00
2018-11-25T19:24:07.973Z,29.60
2018-11-25T19:26:42.128Z,29.70
2018-11-25T19:29:16.243Z,29.83
2018-11-25T19:31:50.482Z,29.00
2018-11-25T19:34:24.359Z,30.03
2018-11-25T19:36:58.562Z,31.07
2018-11-25T19:39:32.809Z,31.33
2018-11-25T19:42:07.223Z,32.70
2018-11-25T19:44:41.152Z,31.83
2018-11-25T19:47:15.618Z,34.03
2018-11-25T19:49:49.756Z,31.30
2018-11-25T19:52:23.900Z,29.73
2018-11-25T19:54:58.095Z,34.13
2018-11-25T19:57:32.411Z,37.53
2018-11-25T20:00:11.567Z,31.03
2018-11-25T20:02:45.954Z,33.33
2018-11-25T20:05:20.524Z,33.63
2018-11-25T20:07:54.662Z,37.43
2018-11-25T20:10:28.860Z,37.37
2018-11-25T20:13:02.902Z,36.20
2018-11-25T20:15:37.329Z,36.33
2018-11-25T20:18:11.587Z,32.30
2018-11-25T20:20:51.663Z,34.60
2018-11-25T20:23:25.906Z,35.17
2018-11-25T20:26:00.189Z,37.73
2018-11-25T20:28:34.258Z,36.33
2018-11-25T20:31:08.491Z,33.80
2018-11-25T20:33:52.237Z,38.77
2018-11-25T20:36:23.298Z,38.50
2018-11-25T20:39:02.861Z,35.33
2018-11-25T20:41:37.188Z,36.50
2018-11-25T20:44:11.621Z,37.10
2018-11-25T20:46:51.433Z,35.57
2018-11-25T20:49:25.633Z,34.20
2018-11-25T20:52:05.406Z,36.67
2018-11-25T20:54:39.488Z,36.10
2018-11-25T20:57:13.870Z,33.07
2018-11-25T20:59:48.139Z,33.90
2018-11-25T21:02:28.875Z,36.67
2018-11-25T21:04:57.035Z,36.67
2018-11-25T21:07:31.168Z,35.60
2018-11-25T21:10:07.273Z,34.20
2018-11-25T21:12:42.229Z,36.87
2018-11-25T21:15:16.485Z,35.40
2018-11-25T21:17:50.653Z,38.73
2018-11-25T21:20:25.663Z,37.43
2018-11-25T21:23:00.043Z,35.33
2018-11-25T21:25:34.139Z,33.73
2018-11-25T21:28:08.202Z,35.97
2018-11-25T21:30:42.497Z,36.40
2018-11-25T21:33:16.200Z,34.87
2018-11-25T21:35:50.633Z,35.87
2018-11-25T21:38:24.732Z,37.17
2018-11-25T21:40:58.724Z,35.10
2018-11-25T21:43:33.027Z,35.60
2018-11-25T21:46:07.170Z,36.53
2018-11-25T21:48:41.426Z,34.37
2018-11-25T21:51:15.562Z,36.10
2018-11-25T21:53:49.548Z,35.40
2018-11-25T21:56:24.220Z,35.47
2018-11-25T21:58:58.011Z,32.13
2018-11-25T22:01:32.033Z,32.67
2018-11-25T22:04:06.265Z,32.77
2018-11-25T22:06:40.831Z,32.40
2018-11-25T22:09:15.049Z,33.10
2018-11-25T22:11:49.248Z,31.27
2018-11-25T22:14:23.698Z,31.40
2018-11-25T22:16:57.744Z,31.43
2018-11-25T22:19:31.942Z,34.63
2018-11-25T22:22:05.980Z,30.77
2018-11-25T22:24:40.587Z,32.67
2018-11-25T22:27:14.575Z,35.23
2018-11-25T22:29:48.830Z,37.20
2018-11-25T22:32:23.051Z,33.47
2018-11-25T22:34:56.973Z,35.63
2018-11-25T22:37:30.852Z,33.80
2018-11-25T22:40:06.758Z,36.27
2018-11-25T22:42:41.806Z,32.57
2018-11-25T22:45:17.171Z,33.97
2018-11-25T22:47:51.582Z,33.07
2018-11-25T22:50:27.623Z,34.27
2018-11-25T22:52:59.479Z,31.07
2018-11-25T22:55:40.263Z,31.83
2018-11-25T22:58:14.297Z,34.10
2018-11-25T23:00:51.046Z,36.77
2018-11-25T23:03:24.947Z,31.67
2018-11-25T23:06:11.212Z,33.87
2018-11-25T23:08:45.694Z,32.63
2018-11-25T23:11:19.838Z,35.67
2018-11-25T23:13:53.846Z,34.73
2018-11-25T23:16:27.888Z,35.53
2018-11-25T23:19:01.739Z,33.70
2018-11-25T23:21:35.831Z,32.20
2018-11-25T23:24:10.063Z,32.47
2018-11-25T23:26:50.831Z,34.00
2018-11-25T23:29:25.233Z,30.27
2018-11-25T23:31:59.297Z,35.30
2018-11-25T23:34:33.589Z,33.37
2018-11-25T23:37:08.660Z,37.00
2018-11-25T23:39:42.828Z,32.80
2018-11-25T23:42:16.886Z,32.13
2018-11-25T23:44:50.773Z,35.00
2018-11-25T23:47:24.798Z,31.83
2018-11-25T23:49:58.933Z,31.17
2018-11-25T23:52:33.078Z,31.77
2018-11-25T23:55:09.193Z,31.43
2018-11-25T23:57:43.166Z,33.47
